sensor_id;sensor_type;location;lat;lon;timestamp;pressure;altitude;pressure_sealevel;temperature;humidity
8575;BME280;4325;42.520;27.448;2024-01-30T00:00:09;103248.72;;;4.64;90.97
8575;BME280;4325;42.520;27.448;2024-01-30T00:02:36;103254.16;;;4.72;90.80
8575;BME280;4325;42.520;27.448;2024-01-30T00:05:04;103249.56;;;4.73;90.56
8575;BME280;4325;42.520;27.448;2024-01-30T00:07:31;103257.22;;;4.69;89.52
8575;BME280;4325;42.520;27.448;2024-01-30T00:09:58;103249.41;;;4.66;89.04
8575;BME280;4325;42.520;27.448;2024-01-30T00:12:26;103263.31;;;4.71;88.78
8575;BME280;4325;42.520;27.448;2024-01-30T00:14:53;103267.38;;;4.75;88.52
8575;BME280;4325;42.520;27.448;2024-01-30T00:17:21;103255.50;;;4.76;88.26
8575;BME280;4325;42.520;27.448;2024-01-30T00:19:48;103245.84;;;4.74;89.51
8575;BME280;4325;42.520;27.448;2024-01-30T00:22:15;103243.78;;;4.76;89.01
8575;BME280;4325;42.520;27.448;2024-01-30T00:24:42;103243.78;;;4.76;88.92
8575;BME280;4325;42.520;27.448;2024-01-30T00:27:09;103242.09;;;4.75;88.14
8575;BME280;4325;42.520;27.448;2024-01-30T00:29:37;103244.78;;;4.75;88.82
8575;BME280;4325;42.520;27.448;2024-01-30T00:32:05;103238.88;;;4.71;88.39
8575;BME280;4325;42.520;27.448;2024-01-30T00:34:32;103256.50;;;4.75;88.74
8575;BME280;4325;42.520;27.448;2024-01-30T00:36:59;103250.94;;;4.77;88.65
8575;BME280;4325;42.520;27.448;2024-01-30T00:39:26;103253.78;;;4.75;88.86
8575;BME280;4325;42.520;27.448;2024-01-30T00:41:53;103249.22;;;4.76;88.22
8575;BME280;4325;42.520;27.448;2024-01-30T00:44:21;103256.50;;;4.75;87.83
8575;BME280;4325;42.520;27.448;2024-01-30T00:46:49;103241.94;;;4.76;88.16
8575;BME280;4325;42.520;27.448;2024-01-30T00:49:16;103253.47;;;4.78;88.53
8575;BME280;4325;42.520;27.448;2024-01-30T00:51:43;103248.88;;;4.79;87.91
8575;BME280;4325;42.520;27.448;2024-01-30T00:54:10;103242.59;;;4.78;87.69
8575;BME280;4325;42.520;27.448;2024-01-30T00:56:37;103238.19;;;4.77;88.00
8575;BME280;4325;42.520;27.448;2024-01-30T00:59:04;103248.88;;;4.79;88.69
8575;BME280;4325;42.520;27.448;2024-01-30T01:01:31;103252.44;;;4.79;88.04
8575;BME280;4325;42.520;27.448;2024-01-30T01:03:59;103248.88;;;4.79;87.68
8575;BME280;4325;42.520;27.448;2024-01-30T01:06:27;103248.53;;;4.82;87.40
8575;BME280;4325;42.520;27.448;2024-01-30T01:08:54;103247.69;;;4.81;87.95
8575;BME280;4325;42.520;27.448;2024-01-30T01:11:21;103260.06;;;4.84;88.01
8575;BME280;4325;42.520;27.448;2024-01-30T01:13:48;103246.66;;;4.82;88.17
8575;BME280;4325;42.520;27.448;2024-01-30T01:16:16;103239.88;;;4.78;88.84
8575;BME280;4325;42.520;27.448;2024-01-30T01:18:43;103245.97;;;4.80;88.57
8575;BME280;4325;42.520;27.448;2024-01-30T01:21:11;103243.44;;;4.79;88.80
8575;BME280;4325;42.520;27.448;2024-01-30T01:23:38;103235.31;;;4.79;89.07
8575;BME280;4325;42.520;27.448;2024-01-30T01:26:05;103246.31;;;4.77;89.26
8575;BME280;4325;42.520;27.448;2024-01-30T01:28:32;103238.69;;;4.73;89.52
8575;BME280;4325;42.520;27.448;2024-01-30T01:30:59;103237.69;;;4.74;90.19
8575;BME280;4325;42.520;27.448;2024-01-30T01:33:31;103242.94;;;4.75;91.22
8575;BME280;4325;42.520;27.448;2024-01-30T01:35:58;103237.19;;;4.70;91.43
8575;BME280;4325;42.520;27.448;2024-01-30T01:38:29;103232.25;;;4.65;92.20
8575;BME280;4325;42.520;27.448;2024-01-30T01:40:56;103235.84;;;4.66;92.66
8575;BME280;4325;42.520;27.448;2024-01-30T01:43:23;103233.13;;;4.66;93.42
8575;BME280;4325;42.520;27.448;2024-01-30T01:45:50;103226.84;;;4.65;94.47
8575;BME280;4325;42.520;27.448;2024-01-30T01:48:17;103224.97;;;4.66;94.77
8575;BME280;4325;42.520;27.448;2024-01-30T01:50:44;103224.31;;;4.64;95.22
8575;BME280;4325;42.520;27.448;2024-01-30T01:53:12;103213.47;;;4.64;95.87
8575;BME280;4325;42.520;27.448;2024-01-30T01:55:41;103218.69;;;4.65;96.32
8575;BME280;4325;42.520;27.448;2024-01-30T01:58:08;103210.75;;;4.64;96.62
8575;BME280;4325;42.520;27.448;2024-01-30T02:00:38;103207.19;;;4.63;97.41
8575;BME280;4325;42.520;27.448;2024-01-30T02:03:08;103206.31;;;4.63;96.84
8575;BME280;4325;42.520;27.448;2024-01-30T02:05:37;103205.66;;;4.61;97.02
8575;BME280;4325;42.520;27.448;2024-01-30T02:08:05;103215.84;;;4.59;97.56
8575;BME280;4325;42.520;27.448;2024-01-30T02:10:32;103205.84;;;4.59;97.22
8575;BME280;4325;42.520;27.448;2024-01-30T02:13:01;103213.47;;;4.64;97.77
8575;BME280;4325;42.520;27.448;2024-01-30T02:15:28;103207.69;;;4.67;97.50
8575;BME280;4325;42.520;27.448;2024-01-30T02:17:55;103214.78;;;4.68;97.51
8575;BME280;4325;42.520;27.448;2024-01-30T02:20:24;103210.56;;;4.65;97.68
8575;BME280;4325;42.520;27.448;2024-01-30T02:22:54;103214.78;;;4.68;97.60
8575;BME280;4325;42.520;27.448;2024-01-30T02:25:30;103215.66;;;4.68;97.68
8575;BME280;4325;42.520;27.448;2024-01-30T02:27:57;103204.28;;;4.65;97.85
8575;BME280;4325;42.520;27.448;2024-01-30T02:30:24;103203.47;;;4.64;98.83
8575;BME280;4325;42.520;27.448;2024-01-30T02:32:51;103197.19;;;4.64;99.02
8575;BME280;4325;42.520;27.448;2024-01-30T02:35:18;103192.59;;;4.64;99.57
8575;BME280;4325;42.520;27.448;2024-01-30T02:37:45;103197.19;;;4.64;99.74
8575;BME280;4325;42.520;27.448;2024-01-30T02:40:14;103182.09;;;4.61;99.75
8575;BME280;4325;42.520;27.448;2024-01-30T02:42:41;103176.13;;;4.66;99.03
8575;BME280;4325;42.520;27.448;2024-01-30T02:45:09;103174.81;;;4.62;99.44
8575;BME280;4325;42.520;27.448;2024-01-30T02:47:37;103171.91;;;4.55;100.00
8575;BME280;4325;42.520;27.448;2024-01-30T02:50:04;103172.75;;;4.56;100.00
8575;BME280;4325;42.520;27.448;2024-01-30T02:52:31;103179.03;;;4.56;100.00
8575;BME280;4325;42.520;27.448;2024-01-30T02:54:58;103178.19;;;4.56;100.00
8575;BME280;4325;42.520;27.448;2024-01-30T02:57:27;103183.63;;;4.56;100.00
8575;BME280;4325;42.520;27.448;2024-01-30T02:59:54;103170.72;;;4.58;100.00
8575;BME280;4325;42.520;27.448;2024-01-30T03:02:21;103174.09;;;4.60;100.00
8575;BME280;4325;42.520;27.448;2024-01-30T03:04:48;103176.00;;;4.59;100.00
8575;BME280;4325;42.520;27.448;2024-01-30T03:07:15;103178.53;;;4.61;100.00
8575;BME280;4325;42.520;27.448;2024-01-30T03:09:42;103182.94;;;4.62;100.00
8575;BME280;4325;42.520;27.448;2024-01-30T03:12:09;103181.56;;;4.58;100.00
8575;BME280;4325;42.520;27.448;2024-01-30T03:14:38;103186.66;;;4.61;100.00
8575;BME280;4325;42.520;27.448;2024-01-30T03:17:05;103188.38;;;4.62;100.00
8575;BME280;4325;42.520;27.448;2024-01-30T03:19:32;103189.38;;;4.61;100.00
8575;BME280;4325;42.520;27.448;2024-01-30T03:21:59;103177.84;;;4.59;100.00
8575;BME280;4325;42.520;27.448;2024-01-30T03:24:26;103176.00;;;4.59;100.00
8575;BME280;4325;42.520;27.448;2024-01-30T03:26:53;103158.19;;;4.57;100.00
8575;BME280;4325;42.520;27.448;2024-01-30T03:29:20;103167.34;;;4.56;100.00
8575;BME280;4325;42.520;27.448;2024-01-30T03:31:48;103161.75;;;4.49;100.00
8575;BME280;4325;42.520;27.448;2024-01-30T03:34:15;103165.53;;;4.40;100.00
8575;BME280;4325;42.520;27.448;2024-01-30T03:36:43;103165.66;;;4.39;100.00
8575;BME280;4325;42.520;27.448;2024-01-30T03:39:10;103171.25;;;4.45;100.00
8575;BME280;4325;42.520;27.448;2024-01-30T03:41:37;103170.44;;;4.45;100.00
8575;BME280;4325;42.520;27.448;2024-01-30T03:44:04;103175.84;;;4.45;100.00
8575;BME280;4325;42.520;27.448;2024-01-30T03:46:31;103162.97;;;4.47;100.00
8575;BME280;4325;42.520;27.448;2024-01-30T03:48:59;103173.81;;;4.47;100.00
8575;BME280;4325;42.520;27.448;2024-01-30T03:51:26;103166.34;;;4.49;100.00
8575;BME280;4325;42.520;27.448;2024-01-30T03:53:53;103168.38;;;4.47;100.00
8575;BME280;4325;42.520;27.448;2024-01-30T03:56:20;103167.88;;;4.43;100.00
8575;BME280;4325;42.520;27.448;2024-01-30T03:58:48;103169.91;;;4.41;100.00
8575;BME280;4325;42.520;27.448;2024-01-30T04:01:15;103168.72;;;4.44;100.00
8575;BME280;4325;42.520;27.448;2024-01-30T04:03:42;103171.94;;;4.47;100.00
8575;BME280;4325;42.520;27.448;2024-01-30T04:06:12;103182.94;;;4.54;100.00
8575;BME280;4325;42.520;27.448;2024-01-30T04:08:39;103173.75;;;4.63;100.00
8575;BME280;4325;42.520;27.448;2024-01-30T04:11:06;103182.25;;;4.60;100.00
8575;BME280;4325;42.520;27.448;2024-01-30T04:13:33;103177.34;;;4.55;100.00
8575;BME280;4325;42.520;27.448;2024-01-30T04:16:01;103188.03;;;4.49;100.00
8575;BME280;4325;42.520;27.448;2024-01-30T04:18:28;103186.00;;;4.51;100.00
8575;BME280;4325;42.520;27.448;2024-01-30T04:20:56;103183.28;;;4.51;100.00
8575;BME280;4325;42.520;27.448;2024-01-30T04:23:24;103188.72;;;4.51;100.00
8575;BME280;4325;42.520;27.448;2024-01-30T04:25:51;103195.19;;;4.50;100.00
8575;BME280;4325;42.520;27.448;2024-01-30T04:28:18;103196.84;;;4.51;100.00
8575;BME280;4325;42.520;27.448;2024-01-30T04:30:45;103192.47;;;4.50;100.00
8575;BME280;4325;42.520;27.448;2024-01-30T04:33:12;103197.69;;;4.51;100.00
8575;BME280;4325;42.520;27.448;2024-01-30T04:35:39;103185.00;;;4.52;100.00
8575;BME280;4325;42.520;27.448;2024-01-30T04:38:06;103188.72;;;4.51;100.00
8575;BME280;4325;42.520;27.448;2024-01-30T04:40:35;103190.75;;;4.57;100.00
8575;BME280;4325;42.520;27.448;2024-01-30T04:43:02;103189.03;;;4.56;100.00
8575;BME280;4325;42.520;27.448;2024-01-30T04:45:29;103194.31;;;4.57;100.00
8575;BME280;4325;42.520;27.448;2024-01-30T04:47:56;103188.69;;;4.59;100.00
8575;BME280;4325;42.520;27.448;2024-01-30T04:50:23;103181.56;;;4.58;100.00
8575;BME280;4325;42.520;27.448;2024-01-30T04:52:52;103190.56;;;4.50;100.00
8575;BME280;4325;42.520;27.448;2024-01-30T04:55:19;103194.66;;;4.46;100.00
8575;BME280;4325;42.520;27.448;2024-01-30T04:57:47;103190.41;;;4.44;100.00
8575;BME280;4325;42.520;27.448;2024-01-30T05:00:15;103194.47;;;4.48;100.00
8575;BME280;4325;42.520;27.448;2024-01-30T05:02:42;103186.34;;;4.48;100.00
8575;BME280;4325;42.520;27.448;2024-01-30T05:05:09;103188.03;;;4.49;100.00
8575;BME280;4325;42.520;27.448;2024-01-30T05:07:36;103179.22;;;4.47;100.00
8575;BME280;4325;42.520;27.448;2024-01-30T05:10:04;103173.81;;;4.47;100.00
8575;BME280;4325;42.520;27.448;2024-01-30T05:12:31;103168.38;;;4.47;100.00
8575;BME280;4325;42.520;27.448;2024-01-30T05:14:59;103174.16;;;4.44;100.00
8575;BME280;4325;42.520;27.448;2024-01-30T05:17:26;103169.75;;;4.43;100.00
8575;BME280;4325;42.520;27.448;2024-01-30T05:19:53;103177.53;;;4.46;100.00
8575;BME280;4325;42.520;27.448;2024-01-30T05:22:20;103180.91;;;4.48;100.00
8575;BME280;4325;42.520;27.448;2024-01-30T05:24:47;103182.94;;;4.46;100.00
8575;BME280;4325;42.520;27.448;2024-01-30T05:27:14;103198.38;;;4.45;100.00
8575;BME280;4325;42.520;27.448;2024-01-30T05:29:41;103192.13;;;4.45;100.00
8575;BME280;4325;42.520;27.448;2024-01-30T05:32:10;103188.75;;;4.43;100.00
8575;BME280;4325;42.520;27.448;2024-01-30T05:34:37;103179.91;;;4.41;100.00
8575;BME280;4325;42.520;27.448;2024-01-30T05:37:04;103176.84;;;4.44;100.00
8575;BME280;4325;42.520;27.448;2024-01-30T05:39:31;103167.88;;;4.43;100.00
8575;BME280;4325;42.520;27.448;2024-01-30T05:41:59;103172.47;;;4.43;100.00
8575;BME280;4325;42.520;27.448;2024-01-30T05:44:26;103173.13;;;4.37;100.00
8575;BME280;4325;42.520;27.448;2024-01-30T05:46:53;103188.22;;;4.39;100.00
8575;BME280;4325;42.520;27.448;2024-01-30T05:49:21;103186.03;;;4.43;100.00
8575;BME280;4325;42.520;27.448;2024-01-30T05:51:48;103198.56;;;4.44;100.00
8575;BME280;4325;42.520;27.448;2024-01-30T05:57:01;103193.13;;;4.44;100.00
8575;BME280;4325;42.520;27.448;2024-01-30T05:59:28;103196.19;;;4.41;100.00
8575;BME280;4325;42.520;27.448;2024-01-30T06:01:55;103191.59;;;4.41;100.00
8575;BME280;4325;42.520;27.448;2024-01-30T06:04:24;103196.19;;;4.41;100.00
8575;BME280;4325;42.520;27.448;2024-01-30T06:06:51;103198.88;;;4.49;100.00
8575;BME280;4325;42.520;27.448;2024-01-30T06:09:18;103197.69;;;4.51;100.00
8575;BME280;4325;42.520;27.448;2024-01-30T06:11:45;103203.97;;;4.52;100.00
8575;BME280;4325;42.520;27.448;2024-01-30T06:14:12;103211.09;;;4.53;100.00
8575;BME280;4325;42.520;27.448;2024-01-30T06:16:39;103213.31;;;4.57;100.00
8575;BME280;4325;42.520;27.448;2024-01-30T06:19:06;103224.31;;;4.64;100.00
8575;BME280;4325;42.520;27.448;2024-01-30T06:21:34;103221.41;;;4.65;100.00
8575;BME280;4325;42.520;27.448;2024-01-30T06:24:04;103214.78;;;4.68;100.00
8575;BME280;4325;42.520;27.448;2024-01-30T06:26:31;103219.88;;;4.71;100.00
8575;BME280;4325;42.520;27.448;2024-01-30T06:28:58;103219.22;;;4.69;100.00
8575;BME280;4325;42.520;27.448;2024-01-30T06:31:25;103220.56;;;4.73;100.00
8575;BME280;4325;42.520;27.448;2024-01-30T06:33:52;103215.78;;;4.75;100.00
8575;BME280;4325;42.520;27.448;2024-01-30T06:36:19;103213.59;;;4.71;100.00
8575;BME280;4325;42.520;27.448;2024-01-30T06:38:47;103224.13;;;4.74;100.00
8575;BME280;4325;42.520;27.448;2024-01-30T06:41:14;103229.56;;;4.74;100.00
8575;BME280;4325;42.520;27.448;2024-01-30T06:43:41;103226.66;;;4.75;100.00
8575;BME280;4325;42.520;27.448;2024-01-30T06:46:10;103223.25;;;4.81;100.00
8575;BME280;4325;42.520;27.448;2024-01-30T06:48:38;103219.84;;;4.87;100.00
8575;BME280;4325;42.520;27.448;2024-01-30T06:51:06;103228.66;;;4.89;100.00
8575;BME280;4325;42.520;27.448;2024-01-30T06:53:33;103223.59;;;4.86;100.00
8575;BME280;4325;42.520;27.448;2024-01-30T06:56:02;103214.91;;;4.91;100.00
8575;BME280;4325;42.520;27.448;2024-01-30T06:58:29;103226.63;;;4.91;100.00
8575;BME280;4325;42.520;27.448;2024-01-30T07:00:56;103217.44;;;4.92;100.00
8575;BME280;4325;42.520;27.448;2024-01-30T07:03:24;103213.00;;;4.99;100.00
8575;BME280;4325;42.520;27.448;2024-01-30T07:05:51;103221.13;;;5.07;99.36
8575;BME280;4325;42.520;27.448;2024-01-30T07:08:18;103213.97;;;5.14;98.94
8575;BME280;4325;42.520;27.448;2024-01-30T07:10:45;103235.34;;;5.25;98.26
8575;BME280;4325;42.520;27.448;2024-01-30T07:13:14;103229.19;;;5.31;97.13
8575;BME280;4325;42.520;27.448;2024-01-30T07:15:42;103228.66;;;5.36;95.84
8575;BME280;4325;42.520;27.448;2024-01-30T07:18:09;103232.22;;;5.37;95.92
8575;BME280;4325;42.520;27.448;2024-01-30T07:20:36;103237.16;;;5.33;95.17
8575;BME280;4325;42.520;27.448;2024-01-30T07:23:07;103238.53;;;5.29;95.96
8575;BME280;4325;42.520;27.448;2024-01-30T07:25:36;103233.78;;;5.31;96.12
8575;BME280;4325;42.520;27.448;2024-01-30T07:28:04;103238.88;;;5.34;96.00
8575;BME280;4325;42.520;27.448;2024-01-30T07:30:33;103242.41;;;5.43;95.69
8575;BME280;4325;42.520;27.448;2024-01-30T07:33:00;103237.44;;;5.46;95.48
8575;BME280;4325;42.520;27.448;2024-01-30T07:35:27;103229.09;;;5.48;95.06
8575;BME280;4325;42.520;27.448;2024-01-30T07:37:54;103230.81;;;5.49;95.49
8575;BME280;4325;42.520;27.448;2024-01-30T07:40:22;103244.41;;;5.49;95.94
8575;BME280;4325;42.520;27.448;2024-01-30T07:42:49;103242.66;;;5.56;94.89
8575;BME280;4325;42.520;27.448;2024-01-30T07:45:16;103242.94;;;5.69;94.21
8575;BME280;4325;42.520;27.448;2024-01-30T07:47:49;103249.66;;;5.81;93.05
8575;BME280;4325;42.520;27.448;2024-01-30T07:50:16;103239.47;;;5.83;91.94
8575;BME280;4325;42.520;27.448;2024-01-30T07:52:43;103238.78;;;5.81;91.60
8575;BME280;4325;42.520;27.448;2024-01-30T07:55:10;103243.19;;;5.82;92.08
8575;BME280;4325;42.520;27.448;2024-01-30T07:57:38;103251.88;;;5.77;92.24
8575;BME280;4325;42.520;27.448;2024-01-30T08:00:06;103247.00;;;5.73;93.03
8575;BME280;4325;42.520;27.448;2024-01-30T08:02:34;103247.66;;;5.75;93.08
8575;BME280;4325;42.520;27.448;2024-01-30T08:05:02;103250.34;;;5.83;92.79
8575;BME280;4325;42.520;27.448;2024-01-30T08:07:29;103249.28;;;5.92;91.92
8575;BME280;4325;42.520;27.448;2024-01-30T08:09:57;103248.38;;;5.99;90.87
8575;BME280;4325;42.520;27.448;2024-01-30T08:12:24;103249.19;;;6.08;90.19
8575;BME280;4325;42.520;27.448;2024-01-30T08:14:51;103250.00;;;6.09;89.73
8575;BME280;4325;42.520;27.448;2024-01-30T08:17:18;103247.28;;;6.09;90.31
8575;BME280;4325;42.520;27.448;2024-01-30T08:19:45;103246.78;;;6.13;89.47
8575;BME280;4325;42.520;27.448;2024-01-30T08:22:13;103242.28;;;6.20;89.06
8575;BME280;4325;42.520;27.448;2024-01-30T08:24:41;103241.91;;;6.23;88.44
8575;BME280;4325;42.520;27.448;2024-01-30T08:27:08;103242.50;;;6.33;86.71
8575;BME280;4325;42.520;27.448;2024-01-30T08:29:36;103228.53;;;6.36;87.19
8575;BME280;4325;42.520;27.448;2024-01-30T08:32:05;103236.06;;;6.34;86.95
8575;BME280;4325;42.520;27.448;2024-01-30T08:34:32;103231.63;;;6.33;86.24
8575;BME280;4325;42.520;27.448;2024-01-30T08:36:59;103236.06;;;6.34;86.34
8575;BME280;4325;42.520;27.448;2024-01-30T08:39:27;103240.44;;;6.35;86.64
8575;BME280;4325;42.520;27.448;2024-01-30T08:41:54;103240.44;;;6.35;85.95
8575;BME280;4325;42.520;27.448;2024-01-30T08:44:21;103250.97;;;6.38;86.25
8575;BME280;4325;42.520;27.448;2024-01-30T08:46:48;103243.84;;;6.37;86.40
8575;BME280;4325;42.520;27.448;2024-01-30T08:49:16;103252.44;;;6.49;86.02
8575;BME280;4325;42.520;27.448;2024-01-30T08:51:43;103260.28;;;6.67;85.14
8575;BME280;4325;42.520;27.448;2024-01-30T08:54:10;103260.19;;;6.89;83.78
8575;BME280;4325;42.520;27.448;2024-01-30T08:56:39;103255.34;;;7.14;81.99
8575;BME280;4325;42.520;27.448;2024-01-30T08:59:06;103253.53;;;7.21;79.79
8575;BME280;4325;42.520;27.448;2024-01-30T09:01:33;103254.75;;;7.18;79.68
8575;BME280;4325;42.520;27.448;2024-01-30T09:04:00;103237.66;;;7.39;79.39
8575;BME280;4325;42.520;27.448;2024-01-30T09:06:27;103234.53;;;7.57;76.93
8575;BME280;4325;42.520;27.448;2024-01-30T09:08:54;103230.19;;;7.98;74.26
8575;BME280;4325;42.520;27.448;2024-01-30T09:11:23;103219.38;;;9.15;66.70
8575;BME280;4325;42.520;27.448;2024-01-30T09:13:52;103225.56;;;9.78;62.12
8575;BME280;4325;42.520;27.448;2024-01-30T09:16:19;103254.44;;;9.93;60.29
8575;BME280;4325;42.520;27.448;2024-01-30T09:18:46;103258.47;;;9.98;59.89
8575;BME280;4325;42.520;27.448;2024-01-30T09:21:13;103255.00;;;9.76;59.80
8575;BME280;4325;42.520;27.448;2024-01-30T09:23:40;103249.03;;;9.53;60.40
8575;BME280;4325;42.520;27.448;2024-01-30T09:26:07;103256.00;;;9.21;61.36
8575;BME280;4325;42.520;27.448;2024-01-30T09:28:34;103250.66;;;9.06;62.28
8575;BME280;4325;42.520;27.448;2024-01-30T09:31:03;103245.09;;;8.93;62.72
8575;BME280;4325;42.520;27.448;2024-01-30T09:33:30;103246.94;;;8.86;64.03
8575;BME280;4325;42.520;27.448;2024-01-30T09:35:57;103245.41;;;9.05;63.58
8575;BME280;4325;42.520;27.448;2024-01-30T09:38:24;103237.56;;;9.29;62.40
8575;BME280;4325;42.520;27.448;2024-01-30T09:40:55;103245.28;;;9.67;60.70
8575;BME280;4325;42.520;27.448;2024-01-30T09:43:23;103242.03;;;9.98;59.14
8575;BME280;4325;42.520;27.448;2024-01-30T09:45:50;103231.50;;;10.01;58.26
8575;BME280;4325;42.520;27.448;2024-01-30T09:48:19;103223.47;;;9.86;58.07
8575;BME280;4325;42.520;27.448;2024-01-30T09:50:46;103223.63;;;9.59;57.73
8575;BME280;4325;42.520;27.448;2024-01-30T09:53:14;103219.50;;;9.35;58.50
8575;BME280;4325;42.520;27.448;2024-01-30T09:55:42;103216.56;;;9.37;58.82
8575;BME280;4325;42.520;27.448;2024-01-30T09:58:09;103217.91;;;9.54;58.42
8575;BME280;4325;42.520;27.448;2024-01-30T10:00:36;103207.59;;;9.56;58.50
8575;BME280;4325;42.520;27.448;2024-01-30T10:03:04;103205.03;;;9.48;57.91
8575;BME280;4325;42.520;27.448;2024-01-30T10:05:33;103206.44;;;9.30;58.87
8575;BME280;4325;42.520;27.448;2024-01-30T10:08:06;103201.94;;;9.10;59.53
8575;BME280;4325;42.520;27.448;2024-01-30T10:10:33;103216.34;;;8.97;60.06
8575;BME280;4325;42.520;27.448;2024-01-30T10:13:01;103204.28;;;8.85;59.40
8575;BME280;4325;42.520;27.448;2024-01-30T10:15:28;103214.47;;;8.70;60.22
8575;BME280;4325;42.520;27.448;2024-01-30T10:17:55;103204.34;;;8.64;60.76
8575;BME280;4325;42.520;27.448;2024-01-30T10:20:24;103215.78;;;8.46;61.74
8575;BME280;4325;42.520;27.448;2024-01-30T10:22:53;103208.47;;;8.53;62.35
8575;BME280;4325;42.520;27.448;2024-01-30T10:25:21;103191.38;;;8.45;62.42
8575;BME280;4325;42.520;27.448;2024-01-30T10:27:52;103205.03;;;8.45;63.02
8575;BME280;4325;42.520;27.448;2024-01-30T10:30:20;103195.94;;;8.59;62.63
8575;BME280;4325;42.520;27.448;2024-01-30T10:32:47;103203.59;;;8.77;61.32
8575;BME280;4325;42.520;27.448;2024-01-30T10:35:15;103194.09;;;9.00;60.67
8575;BME280;4325;42.520;27.448;2024-01-30T10:37:43;103191.72;;;9.32;59.27
8575;BME280;4325;42.520;27.448;2024-01-30T10:40:14;103198.38;;;9.70;58.05
8575;BME280;4325;42.520;27.448;2024-01-30T10:42:42;103190.88;;;10.05;56.40
8575;BME280;4325;42.520;27.448;2024-01-30T10:45:11;103194.50;;;10.18;55.74
8575;BME280;4325;42.520;27.448;2024-01-30T10:47:40;103189.44;;;10.54;54.65
8575;BME280;4325;42.520;27.448;2024-01-30T10:50:08;103191.16;;;10.55;53.53
8575;BME280;4325;42.520;27.448;2024-01-30T10:52:36;103193.66;;;10.37;53.85
8575;BME280;4325;42.520;27.448;2024-01-30T10:55:05;103187.78;;;10.21;53.80
8575;BME280;4325;42.520;27.448;2024-01-30T10:57:35;103193.53;;;9.65;54.72
8575;BME280;4325;42.520;27.448;2024-01-30T11:00:04;103199.28;;;9.29;56.12
8575;BME280;4325;42.520;27.448;2024-01-30T11:02:37;103197.00;;;8.99;57.40
8575;BME280;4325;42.520;27.448;2024-01-30T11:05:05;103199.81;;;8.78;58.38
8575;BME280;4325;42.520;27.448;2024-01-30T11:07:34;103190.53;;;8.72;59.17
8575;BME280;4325;42.520;27.448;2024-01-30T11:10:03;103190.34;;;8.74;59.41
8575;BME280;4325;42.520;27.448;2024-01-30T11:12:32;103192.63;;;8.70;59.27
8575;BME280;4325;42.520;27.448;2024-01-30T11:15:05;103187.72;;;8.59;59.99
8575;BME280;4325;42.520;27.448;2024-01-30T11:17:42;103182.28;;;8.59;60.61
8575;BME280;4325;42.520;27.448;2024-01-30T11:20:10;103180.50;;;8.79;60.66
8575;BME280;4325;42.520;27.448;2024-01-30T11:22:44;103173.06;;;9.01;59.48
8575;BME280;4325;42.520;27.448;2024-01-30T11:25:13;103177.88;;;8.99;58.59
8575;BME280;4325;42.520;27.448;2024-01-30T11:27:41;103161.31;;;9.07;58.46
8575;BME280;4325;42.520;27.448;2024-01-30T11:30:10;103173.97;;;9.14;58.22
8575;BME280;4325;42.520;27.448;2024-01-30T11:32:37;103169.31;;;9.08;58.44
8575;BME280;4325;42.520;27.448;2024-01-30T11:35:05;103157.03;;;8.91;59.03
8575;BME280;4325;42.520;27.448;2024-01-30T11:37:36;103157.75;;;8.72;59.70
8575;BME280;4325;42.520;27.448;2024-01-30T11:40:05;103162.91;;;8.54;60.99
8575;BME280;4325;42.520;27.448;2024-01-30T11:42:34;103163.81;;;8.40;62.19
8575;BME280;4325;42.520;27.448;2024-01-30T11:45:05;103156.19;;;8.29;62.82
8575;BME280;4325;42.520;27.448;2024-01-30T11:47:36;103149.16;;;8.20;63.62
8575;BME280;4325;42.520;27.448;2024-01-30T11:50:04;103157.03;;;8.29;64.26
8575;BME280;4325;42.520;27.448;2024-01-30T11:52:33;103147.06;;;8.43;63.75
8575;BME280;4325;42.520;27.448;2024-01-30T11:55:00;103152.13;;;8.46;63.36
8575;BME280;4325;42.520;27.448;2024-01-30T11:57:28;103157.63;;;8.52;63.30
8575;BME280;4325;42.520;27.448;2024-01-30T11:59:55;103160.41;;;8.59;63.59
8575;BME280;4325;42.520;27.448;2024-01-30T12:02:22;103160.63;;;8.64;63.31
8575;BME280;4325;42.520;27.448;2024-01-30T12:04:50;103158.13;;;8.62;62.82
8575;BME280;4325;42.520;27.448;2024-01-30T12:07:18;103167.31;;;8.55;63.00
8575;BME280;4325;42.520;27.448;2024-01-30T12:09:52;103155.69;;;8.46;63.93
8575;BME280;4325;42.520;27.448;2024-01-30T12:12:21;103159.03;;;8.42;64.40
8575;BME280;4325;42.520;27.448;2024-01-30T12:14:49;103149.81;;;8.22;65.10
8575;BME280;4325;42.520;27.448;2024-01-30T12:17:23;103156.03;;;8.16;65.90
8575;BME280;4325;42.520;27.448;2024-01-30T12:20:02;103163.47;;;8.01;66.91
8575;BME280;4325;42.520;27.448;2024-01-30T12:22:30;103161.47;;;7.88;67.57
8575;BME280;4325;42.520;27.448;2024-01-30T12:24:57;103159.56;;;7.88;68.40
8575;BME280;4325;42.520;27.448;2024-01-30T12:27:24;103160.88;;;7.92;68.87
8575;BME280;4325;42.520;27.448;2024-01-30T12:29:56;103162.69;;;8.07;68.71
8575;BME280;4325;42.520;27.448;2024-01-30T12:32:23;103153.25;;;8.09;68.10
8575;BME280;4325;42.520;27.448;2024-01-30T12:34:54;103158.72;;;8.09;67.35
8575;BME280;4325;42.520;27.448;2024-01-30T12:37:22;103158.94;;;8.08;67.16
8575;BME280;4325;42.520;27.448;2024-01-30T12:39:51;103150.22;;;7.97;67.09
8575;BME280;4325;42.520;27.448;2024-01-30T12:42:19;103151.78;;;7.85;67.51
8575;BME280;4325;42.520;27.448;2024-01-30T12:44:47;103143.94;;;7.76;67.66
8575;BME280;4325;42.520;27.448;2024-01-30T12:47:15;103150.53;;;7.67;68.45
8575;BME280;4325;42.520;27.448;2024-01-30T12:49:42;103145.47;;;7.64;68.86
8575;BME280;4325;42.520;27.448;2024-01-30T12:52:11;103134.47;;;7.57;70.25
8575;BME280;4325;42.520;27.448;2024-01-30T12:54:38;103143.97;;;7.61;70.34
8575;BME280;4325;42.520;27.448;2024-01-30T12:57:06;103143.72;;;7.56;70.02
8575;BME280;4325;42.520;27.448;2024-01-30T12:59:33;103148.13;;;7.57;69.59
8575;BME280;4325;42.520;27.448;2024-01-30T13:02:01;103144.94;;;7.54;69.20
8575;BME280;4325;42.520;27.448;2024-01-30T13:04:29;103146.56;;;7.48;69.57
8575;BME280;4325;42.520;27.448;2024-01-30T13:06:57;103150.06;;;7.42;69.17
8575;BME280;4325;42.520;27.448;2024-01-30T13:09:27;103138.34;;;7.27;70.28
8575;BME280;4325;42.520;27.448;2024-01-30T13:11:54;103141.72;;;7.29;70.66